createdAt,value
2019-04-04T00:01:44.164Z,97829.00
2019-04-04T00:03:51.530Z,97824.00
2019-04-04T00:05:56.614Z,97824.00
2019-04-04T00:08:02.512Z,97815.00
2019-04-04T00:10:08.180Z,97802.00
2019-04-04T00:12:13.687Z,97794.00
2019-04-04T00:14:18.712Z,97778.00
2019-04-04T00:16:23.879Z,97765.00
2019-04-04T00:18:29.257Z,97761.00
2019-04-04T00:20:34.402Z,97757.00
2019-04-04T00:22:40.131Z,97779.00
2019-04-04T00:24:45.240Z,97788.00
2019-04-04T00:26:50.523Z,97788.00
2019-04-04T00:28:55.885Z,97786.00
2019-04-04T00:31:01.007Z,97790.00
2019-04-04T00:33:06.013Z,97781.00
2019-04-04T00:35:11.451Z,97790.00
2019-04-04T00:37:16.397Z,97793.00
2019-04-04T00:39:21.875Z,97792.00
2019-04-04T00:41:27.835Z,97798.00
2019-04-04T00:43:33.048Z,97816.00
2019-04-04T00:45:38.446Z,97800.00
2019-04-04T00:47:44.510Z,97800.00
2019-04-04T00:49:50.077Z,97794.00
2019-04-04T00:51:55.441Z,97784.00
2019-04-04T00:54:01.217Z,97787.00
2019-04-04T00:56:06.193Z,97790.00
2019-04-04T00:58:11.230Z,97780.00
2019-04-04T01:00:19.952Z,97768.00
2019-04-04T01:02:27.355Z,97769.00
2019-04-04T01:04:36.953Z,97776.00
2019-04-04T01:06:44.034Z,97789.00
2019-04-04T01:08:49.567Z,97760.00
2019-04-04T01:10:54.614Z,97747.00
2019-04-04T01:13:00.191Z,97750.00
2019-04-04T01:15:06.279Z,97755.00
2019-04-04T01:17:11.304Z,97758.00
2019-04-04T01:19:16.824Z,97761.00
2019-04-04T01:21:22.795Z,97770.00
2019-04-04T01:23:28.050Z,97774.00
2019-04-04T01:25:33.062Z,97778.00
2019-04-04T01:27:38.947Z,97782.00
2019-04-04T01:29:44.458Z,97782.00
2019-04-04T01:31:49.316Z,97779.00
2019-04-04T01:33:54.671Z,97775.00
2019-04-04T01:35:59.597Z,97771.00
2019-04-04T01:38:04.867Z,97773.00
2019-04-04T01:40:10.060Z,97761.00
2019-04-04T01:42:14.910Z,97750.00
2019-04-04T01:44:20.263Z,97745.00
2019-04-04T01:46:26.374Z,97748.00
2019-04-04T01:48:31.581Z,97752.00
2019-04-04T01:50:36.542Z,97738.00
2019-04-04T01:52:41.660Z,97724.00
2019-04-04T01:54:46.507Z,97722.00
2019-04-04T01:56:51.670Z,97706.00
2019-04-04T01:58:56.813Z,97710.00
2019-04-04T02:01:02.399Z,97698.00
2019-04-04T02:03:07.832Z,97703.00
2019-04-04T02:05:13.279Z,97714.00
2019-04-04T02:07:18.396Z,97722.00
2019-04-04T02:09:23.990Z,97718.00
2019-04-04T02:11:28.841Z,97701.00
2019-04-04T02:13:33.714Z,97700.00
2019-04-04T02:15:38.947Z,97702.00
2019-04-04T02:17:44.302Z,97711.00
2019-04-04T02:19:50.031Z,97703.00
2019-04-04T02:21:55.552Z,97699.00
2019-04-04T02:24:01.543Z,97703.00
2019-04-04T02:26:07.193Z,97705.00
2019-04-04T02:28:12.363Z,97698.00
2019-04-04T02:30:17.356Z,97694.00
2019-04-04T02:32:26.130Z,97686.00
2019-04-04T02:34:30.460Z,97674.00
2019-04-04T02:36:35.692Z,97663.00
2019-04-04T02:38:41.469Z,97666.00
2019-04-04T02:40:46.641Z,97675.00
2019-04-04T02:42:54.387Z,97685.00
2019-04-04T02:44:58.171Z,97681.00
2019-04-04T02:47:03.319Z,97664.00
2019-04-04T02:49:08.781Z,97668.00
2019-04-04T02:51:13.643Z,97670.00
2019-04-04T02:53:20.343Z,97674.00
2019-04-04T02:55:29.797Z,97674.00
2019-04-04T02:57:32.587Z,97673.00
2019-04-04T02:59:37.818Z,97673.00
2019-04-04T03:01:42.792Z,97681.00
2019-04-04T03:03:47.885Z,97699.00
2019-04-04T03:05:52.892Z,97707.00
2019-04-04T03:07:57.838Z,97710.00
2019-04-04T03:10:03.164Z,97734.00
2019-04-04T03:12:08.078Z,97750.00
2019-04-04T03:14:13.113Z,97758.00
2019-04-04T03:16:21.035Z,97750.00
2019-04-04T03:18:24.890Z,97722.00
2019-04-04T03:20:30.336Z,97708.00
2019-04-04T03:22:35.182Z,97686.00
2019-04-04T03:24:44.443Z,97673.00
2019-04-04T03:26:47.178Z,97661.00
2019-04-04T03:28:52.680Z,97672.00
2019-04-04T03:31:02.330Z,97682.00
2019-04-04T03:33:04.939Z,97701.00
2019-04-04T03:35:10.075Z,97688.00
2019-04-04T03:37:14.986Z,97688.00
2019-04-04T03:39:20.546Z,97701.00
2019-04-04T03:41:27.583Z,97713.00
2019-04-04T03:43:32.337Z,97710.00
2019-04-04T03:45:37.220Z,97701.00
2019-04-04T03:47:44.509Z,97722.00
2019-04-04T03:49:49.802Z,97714.00
2019-04-04T03:51:54.922Z,97709.00
2019-04-04T03:54:02.123Z,97700.00
2019-04-04T03:56:07.293Z,97688.00
2019-04-04T03:58:12.876Z,97667.00
2019-04-04T04:00:42.852Z,97663.00
2019-04-04T04:02:50.319Z,97696.00
2019-04-04T04:04:54.651Z,97713.00
2019-04-04T04:06:59.818Z,97721.00
2019-04-04T04:09:07.182Z,97698.00
2019-04-04T04:11:12.701Z,97683.00
2019-04-04T04:13:17.917Z,97659.00
2019-04-04T04:15:23.183Z,97666.00
2019-04-04T04:17:28.533Z,97668.00
2019-04-04T04:19:34.044Z,97667.00
2019-04-04T04:21:42.894Z,97669.00
2019-04-04T04:23:49.697Z,97669.00
2019-04-04T04:25:53.757Z,97679.00
2019-04-04T04:28:02.816Z,97673.00
2019-04-04T04:30:07.608Z,97674.00
2019-04-04T04:32:13.210Z,97666.00
2019-04-04T04:34:18.690Z,97655.00
2019-04-04T04:36:23.543Z,97653.00
2019-04-04T04:38:28.456Z,97650.00
2019-04-04T04:40:33.385Z,97642.00
2019-04-04T04:42:38.854Z,97636.00
2019-04-04T04:44:43.996Z,97646.00
2019-04-04T04:46:50.439Z,97643.00
2019-04-04T04:48:55.756Z,97651.00
2019-04-04T04:51:00.902Z,97652.00
2019-04-04T04:53:06.244Z,97645.00
2019-04-04T04:55:12.203Z,97653.00
2019-04-04T04:57:29.473Z,97642.00
2019-04-04T04:59:25.277Z,97637.00
2019-04-04T05:01:30.491Z,97621.00
2019-04-04T05:03:36.020Z,97635.00
2019-04-04T05:05:41.212Z,97641.00
2019-04-04T05:07:46.415Z,97658.00
2019-04-04T05:09:51.318Z,97648.00
2019-04-04T05:11:56.467Z,97651.00
2019-04-04T05:14:01.886Z,97644.00
2019-04-04T05:16:08.853Z,97652.00
2019-04-04T05:18:16.307Z,97663.00
2019-04-04T05:20:20.913Z,97687.00
2019-04-04T05:22:26.414Z,97674.00
2019-04-04T05:24:31.614Z,97662.00
2019-04-04T05:26:38.476Z,97658.00
2019-04-04T05:28:43.900Z,97665.00
2019-04-04T05:30:48.755Z,97675.00
2019-04-04T05:32:56.430Z,97689.00
2019-04-04T05:35:01.319Z,97687.00
2019-04-04T05:37:07.884Z,97677.00
2019-04-04T05:39:12.950Z,97685.00
2019-04-04T05:41:18.408Z,97679.00
2019-04-04T05:43:23.905Z,97675.00
2019-04-04T05:45:28.751Z,97690.00
2019-04-04T05:47:33.614Z,97694.00
2019-04-04T05:49:39.529Z,97683.00
2019-04-04T05:53:50.380Z,97680.00
2019-04-04T05:55:55.999Z,97677.00
2019-04-04T05:58:01.182Z,97678.00
2019-04-04T06:00:09.663Z,97685.00
2019-04-04T06:02:14.530Z,97682.00
2019-04-04T06:04:20.267Z,97672.00
2019-04-04T06:06:25.217Z,97672.00
2019-04-04T06:08:30.520Z,97676.00
2019-04-04T06:10:36.129Z,97680.00
2019-04-04T06:12:41.633Z,97687.00
2019-04-04T06:14:47.088Z,97688.00
2019-04-04T06:16:52.540Z,97697.00
2019-04-04T06:18:57.693Z,97698.00
2019-04-04T06:21:02.882Z,97705.00
2019-04-04T06:23:08.138Z,97711.00
2019-04-04T06:25:13.235Z,97723.00
2019-04-04T06:27:18.161Z,97725.00
2019-04-04T06:29:23.347Z,97714.00
2019-04-04T06:31:30.798Z,97717.00
2019-04-04T06:33:38.866Z,97719.00
2019-04-04T06:35:47.136Z,97722.00
2019-04-04T06:37:52.096Z,97732.00
2019-04-04T06:39:58.828Z,97732.00
2019-04-04T06:42:04.047Z,97741.00
2019-04-04T06:44:10.925Z,97745.00
2019-04-04T06:46:18.407Z,97740.00
2019-04-04T06:48:22.695Z,97742.00
2019-04-04T06:50:28.320Z,97742.00
2019-04-04T06:52:33.197Z,97732.00
2019-04-04T06:54:38.766Z,97739.00
2019-04-04T06:56:43.621Z,97729.00
2019-04-04T06:58:49.113Z,97736.00
2019-04-04T07:00:54.298Z,97736.00
2019-04-04T07:02:59.508Z,97742.00
2019-04-04T07:05:06.296Z,97744.00
2019-04-04T07:07:12.742Z,97746.00
2019-04-04T07:09:19.204Z,97747.00
2019-04-04T07:13:41.434Z,97736.00
2019-04-04T07:15:46.133Z,97735.00
2019-04-04T07:17:42.286Z,97730.00
2019-04-04T07:19:47.144Z,97728.00
2019-04-04T07:21:52.065Z,97737.00
2019-04-04T07:23:59.366Z,97751.00
2019-04-04T07:26:04.562Z,97739.00
2019-04-04T07:28:09.486Z,97732.00
2019-04-04T07:30:15.531Z,97741.00
2019-04-04T07:32:21.005Z,97732.00
2019-04-04T07:34:25.871Z,97738.00
2019-04-04T07:36:31.158Z,97739.00
2019-04-04T07:38:36.365Z,97742.00
2019-04-04T07:40:41.222Z,97738.00
2019-04-04T07:42:47.942Z,97744.00
2019-04-04T07:44:54.447Z,97746.00
2019-04-04T07:46:59.233Z,97739.00
2019-04-04T07:49:04.460Z,97744.00
2019-04-04T07:51:09.317Z,97754.00
2019-04-04T07:53:14.259Z,97755.00
2019-04-04T07:55:19.192Z,97746.00
2019-04-04T07:57:24.177Z,97749.00
2019-04-04T07:59:31.033Z,97747.00
2019-04-04T08:01:35.607Z,97751.00
2019-04-04T08:03:40.959Z,97749.00
2019-04-04T08:05:45.800Z,97760.00
2019-04-04T08:07:51.048Z,97754.00
2019-04-04T08:09:55.906Z,97752.00
2019-04-04T08:12:01.083Z,97745.00
2019-04-04T08:14:06.173Z,97749.00
2019-04-04T08:16:11.478Z,97749.00
2019-04-04T08:18:16.793Z,97751.00
2019-04-04T08:20:21.817Z,97748.00
2019-04-04T08:22:26.772Z,97746.00
2019-04-04T08:24:31.775Z,97749.00
2019-04-04T08:26:36.636Z,97757.00
2019-04-04T08:28:41.575Z,97757.00
2019-04-04T08:30:46.913Z,97765.00
2019-04-04T08:32:52.067Z,97751.00
2019-04-04T08:34:57.058Z,97740.00
2019-04-04T08:37:02.684Z,97748.00
2019-04-04T08:39:11.159Z,97760.00
2019-04-04T08:41:16.568Z,97766.00
2019-04-04T08:43:21.838Z,97767.00
2019-04-04T08:45:26.847Z,97754.00
2019-04-04T08:47:31.714Z,97768.00
2019-04-04T08:49:37.184Z,97767.00
2019-04-04T08:51:42.350Z,97773.00
2019-04-04T08:53:47.697Z,97762.00
2019-04-04T08:55:52.713Z,97775.00
2019-04-04T08:57:58.384Z,97783.00
2019-04-04T09:00:03.383Z,97773.00
2019-04-04T09:02:08.429Z,97777.00
2019-04-04T09:04:13.878Z,97791.00
2019-04-04T09:06:18.810Z,97785.00
2019-04-04T09:08:23.730Z,97787.00
2019-04-04T09:10:28.579Z,97785.00
2019-04-04T09:12:33.792Z,97773.00
2019-04-04T09:14:41.077Z,97781.00
2019-04-04T09:16:45.946Z,97779.00
2019-04-04T09:18:51.154Z,97786.00
2019-04-04T09:20:56.022Z,97782.00
2019-04-04T09:23:01.298Z,97779.00
2019-04-04T09:25:10.170Z,97785.00
2019-04-04T09:27:14.565Z,97784.00
2019-04-04T09:29:20.136Z,97774.00
2019-04-04T09:31:25.099Z,97777.00
2019-04-04T09:33:29.946Z,97775.00
2019-04-04T09:35:35.273Z,97761.00
2019-04-04T09:37:40.660Z,97768.00
2019-04-04T09:39:45.524Z,97767.00
2019-04-04T09:41:50.401Z,97761.00
2019-04-04T09:43:55.596Z,97775.00
2019-04-04T09:46:01.083Z,97767.00
2019-04-04T09:48:06.610Z,97767.00
2019-04-04T09:50:12.091Z,97768.00
2019-04-04T09:52:17.240Z,97765.00
2019-04-04T09:54:22.361Z,97767.00
2019-04-04T09:56:28.187Z,97770.00
2019-04-04T09:58:33.726Z,97774.00
2019-04-04T10:00:38.745Z,97776.00
2019-04-04T10:02:44.698Z,97786.00
2019-04-04T10:04:49.996Z,97784.00
2019-04-04T10:06:54.981Z,97797.00
2019-04-04T10:09:00.494Z,97795.00
2019-04-04T10:11:05.953Z,97780.00
2019-04-04T10:13:11.396Z,97779.00
2019-04-04T10:15:17.947Z,97780.00
2019-04-04T10:17:23.312Z,97785.00
2019-04-04T10:19:28.743Z,97796.00
2019-04-04T10:21:34.398Z,97793.00
2019-04-04T10:23:39.962Z,97801.00
2019-04-04T10:25:45.492Z,97798.00
2019-04-04T10:27:51.379Z,97791.00
2019-04-04T10:29:56.857Z,97792.00
2019-04-04T10:32:01.788Z,97786.00
2019-04-04T10:34:06.864Z,97780.00
2019-04-04T10:36:12.106Z,97786.00
2019-04-04T10:38:16.983Z,97785.00
2019-04-04T10:40:22.302Z,97778.00
2019-04-04T10:42:27.340Z,97772.00
2019-04-04T10:44:32.800Z,97767.00
2019-04-04T10:46:37.951Z,97765.00
2019-04-04T10:48:43.421Z,97765.00
2019-04-04T10:50:48.967Z,97758.00
2019-04-04T10:52:54.146Z,97751.00
2019-04-04T10:55:01.543Z,97758.00
2019-04-04T10:57:06.225Z,97753.00
2019-04-04T10:59:11.852Z,97760.00
2019-04-04T11:01:16.774Z,97770.00
2019-04-04T11:03:21.666Z,97774.00
2019-04-04T11:05:26.799Z,97788.00
2019-04-04T11:07:31.745Z,97785.00
2019-04-04T11:09:42.067Z,97782.00
2019-04-04T11:11:43.488Z,97774.00
2019-04-04T11:13:48.367Z,97789.00
2019-04-04T11:15:53.583Z,97797.00
2019-04-04T11:17:58.459Z,97794.00
2019-04-04T11:20:03.873Z,97787.00
2019-04-04T11:22:09.170Z,97791.00
2019-04-04T11:24:14.398Z,97788.00
2019-04-04T11:26:19.533Z,97802.00
2019-04-04T11:28:24.421Z,97806.00
2019-04-04T11:30:29.759Z,97802.00
2019-04-04T11:32:34.926Z,97806.00
2019-04-04T11:34:52.349Z,97812.00
2019-04-04T11:36:47.782Z,97809.00
2019-04-04T11:38:53.039Z,97814.00
2019-04-04T11:40:57.889Z,97822.00
2019-04-04T11:43:02.825Z,97826.00
2019-04-04T11:45:08.664Z,97823.00
2019-04-04T11:47:13.792Z,97830.00
2019-04-04T11:49:19.011Z,97836.00
2019-04-04T11:51:24.155Z,97835.00
2019-04-04T11:53:29.321Z,97837.00
2019-04-04T11:55:34.588Z,97835.00
2019-04-04T11:57:39.852Z,97842.00
2019-04-04T11:59:45.157Z,97839.00
2019-04-04T12:01:50.612Z,97843.00
2019-04-04T12:03:56.107Z,97838.00
2019-04-04T12:06:01.051Z,97837.00
2019-04-04T12:08:06.829Z,97836.00
2019-04-04T12:10:12.620Z,97844.00
2019-04-04T12:12:18.501Z,97845.00
2019-04-04T12:14:23.737Z,97834.00
2019-04-04T12:16:29.269Z,97835.00
2019-04-04T12:18:34.738Z,97837.00
2019-04-04T12:20:39.908Z,97851.00
2019-04-04T12:22:44.974Z,97852.00
2019-04-04T12:24:50.605Z,97846.00
2019-04-04T12:26:55.462Z,97854.00
2019-04-04T12:29:00.323Z,97854.00
2019-04-04T12:31:06.182Z,97866.00
2019-04-04T12:33:11.282Z,97861.00
2019-04-04T12:35:17.145Z,97859.00
2019-04-04T12:37:22.247Z,97858.00
2019-04-04T12:39:27.210Z,97855.00
2019-04-04T12:41:32.569Z,97847.00
2019-04-04T12:43:37.918Z,97836.00
2019-04-04T12:45:43.100Z,97825.00
2019-04-04T12:47:47.969Z,97827.00
2019-04-04T12:49:52.844Z,97824.00
2019-04-04T12:51:57.931Z,97816.00
2019-04-04T12:54:02.911Z,97823.00
2019-04-04T12:56:07.931Z,97811.00
2019-04-04T12:58:13.274Z,97803.00
2019-04-04T13:00:19.045Z,97805.00
2019-04-04T13:02:24.027Z,97809.00
2019-04-04T13:04:31.812Z,97813.00
2019-04-04T13:06:35.508Z,97817.00
2019-04-04T13:08:41.089Z,97820.00
2019-04-04T13:10:45.984Z,97822.00
2019-04-04T13:12:51.348Z,97822.00
2019-04-04T13:14:56.247Z,97842.00
2019-04-04T13:17:02.228Z,97853.00
2019-04-04T13:19:07.490Z,97856.00
2019-04-04T13:21:12.460Z,97866.00
2019-04-04T13:23:17.886Z,97863.00
2019-04-04T13:25:23.124Z,97855.00
2019-04-04T13:27:28.311Z,97854.00
2019-04-04T13:29:33.848Z,97848.00
2019-04-04T13:31:39.323Z,97850.00
2019-04-04T13:33:44.203Z,97864.00
2019-04-04T13:35:49.071Z,97878.00
2019-04-04T13:37:54.563Z,97878.00
2019-04-04T13:39:59.501Z,97877.00
2019-04-04T13:42:04.858Z,97866.00
2019-04-04T13:44:09.984Z,97871.00
2019-04-04T13:46:15.469Z,97854.00
2019-04-04T13:48:20.502Z,97875.00
2019-04-04T13:50:25.744Z,97869.00
2019-04-04T13:52:30.607Z,97882.00
2019-04-04T13:54:35.894Z,97878.00
2019-04-04T13:56:40.788Z,97891.00
2019-04-04T13:58:47.504Z,97896.00
2019-04-04T14:00:52.433Z,97899.00
2019-04-04T14:02:57.377Z,97893.00
2019-04-04T14:05:09.629Z,97894.00
2019-04-04T14:07:09.375Z,97891.00
2019-04-04T14:09:14.236Z,97902.00
2019-04-04T14:11:19.427Z,97902.00
2019-04-04T14:13:26.151Z,97908.00
2019-04-04T14:15:31.761Z,97916.00
2019-04-04T14:17:36.999Z,97924.00
2019-04-04T14:19:42.241Z,97925.00
2019-04-04T14:21:47.484Z,97923.00
2019-04-04T14:23:53.202Z,97926.00
2019-04-04T14:25:59.887Z,97928.00
2019-04-04T14:28:05.396Z,97918.00
2019-04-04T14:30:12.034Z,97915.00
2019-04-04T14:32:16.980Z,97920.00
2019-04-04T14:34:22.314Z,97922.00
2019-04-04T14:36:27.864Z,97918.00
2019-04-04T14:38:33.272Z,97911.00
2019-04-04T14:40:38.964Z,97909.00
2019-04-04T14:42:44.453Z,97898.00
2019-04-04T14:44:49.718Z,97910.00
2019-04-04T14:46:54.590Z,97912.00
2019-04-04T14:48:59.742Z,97910.00
2019-04-04T14:51:05.425Z,97920.00
2019-04-04T14:53:10.723Z,97928.00
2019-04-04T14:55:17.791Z,97937.00
2019-04-04T14:57:22.576Z,97950.00
2019-04-04T14:59:27.848Z,97955.00
2019-04-04T15:01:34.936Z,97963.00
2019-04-04T15:03:42.104Z,97957.00
2019-04-04T15:05:46.191Z,97961.00
2019-04-04T15:07:51.980Z,97952.00
2019-04-04T15:09:57.449Z,97953.00
2019-04-04T15:12:02.657Z,97964.00
2019-04-04T15:14:07.531Z,97968.00
2019-04-04T15:16:18.298Z,97972.00
2019-04-04T15:18:23.517Z,97952.00
2019-04-04T15:20:28.815Z,97940.00
2019-04-04T15:22:33.943Z,97931.00
2019-04-04T15:24:39.172Z,97948.00
2019-04-04T15:26:44.175Z,97942.00
2019-04-04T15:28:49.575Z,97941.00
2019-04-04T15:30:54.531Z,97941.00
2019-04-04T15:33:02.392Z,97935.00
2019-04-04T15:35:07.623Z,97943.00
2019-04-04T15:37:13.444Z,97939.00
2019-04-04T15:39:18.398Z,97941.00
2019-04-04T15:41:35.895Z,97940.00
2019-04-04T15:43:30.790Z,97954.00
2019-04-04T15:45:36.359Z,97949.00
2019-04-04T15:47:41.302Z,97965.00
2019-04-04T15:49:46.273Z,97968.00
2019-04-04T15:51:51.216Z,97958.00
2019-04-04T15:53:56.452Z,97957.00
2019-04-04T15:56:01.694Z,97970.00
2019-04-04T15:58:06.846Z,97978.00
2019-04-04T16:00:12.365Z,97977.00
2019-04-04T16:02:17.882Z,97976.00
2019-04-04T16:04:23.047Z,97979.00
2019-04-04T16:06:28.383Z,97989.00
2019-04-04T16:08:33.661Z,98001.00
2019-04-04T16:10:38.813Z,98006.00
2019-04-04T16:12:44.063Z,98000.00
2019-04-04T16:14:48.936Z,98000.00
2019-04-04T16:16:54.371Z,98007.00
2019-04-04T16:18:59.699Z,98006.00
2019-04-04T16:21:04.782Z,98012.00
2019-04-04T16:23:10.714Z,98002.00
2019-04-04T16:25:16.107Z,98012.00
2019-04-04T16:27:21.360Z,98010.00
2019-04-04T16:29:27.117Z,97997.00
2019-04-04T16:31:34.481Z,98001.00
2019-04-04T16:33:38.890Z,97986.00
2019-04-04T16:35:44.117Z,97986.00
2019-04-04T16:37:49.587Z,98003.00
2019-04-04T16:39:54.482Z,97998.00
2019-04-04T16:42:02.495Z,97997.00
2019-04-04T16:44:06.306Z,97984.00
2019-04-04T16:46:11.274Z,98002.00
2019-04-04T16:48:16.582Z,98014.00
2019-04-04T16:50:21.618Z,98002.00
2019-04-04T16:52:26.515Z,98000.00
2019-04-04T16:54:31.736Z,97997.00
2019-04-04T16:56:36.767Z,97995.00
2019-04-04T16:58:41.953Z,97993.00
2019-04-04T17:00:47.435Z,97998.00
2019-04-04T17:02:52.770Z,97986.00
2019-04-04T17:04:58.111Z,97996.00
2019-04-04T17:07:03.255Z,97993.00
2019-04-04T17:09:09.355Z,98001.00
2019-04-04T17:11:15.275Z,98016.00
2019-04-04T17:13:20.134Z,98021.00
2019-04-04T17:15:25.152Z,98021.00
2019-04-04T17:17:30.093Z,98033.00
2019-04-04T17:19:35.254Z,98033.00
2019-04-04T17:21:40.129Z,98027.00
2019-04-04T17:23:45.027Z,98036.00
2019-04-04T17:25:49.980Z,98045.00
2019-04-04T17:27:55.370Z,98054.00
2019-04-04T17:30:00.364Z,98053.00
2019-04-04T17:32:05.618Z,98055.00
2019-04-04T17:34:11.249Z,98048.00
2019-04-04T17:36:20.290Z,98036.00
2019-04-04T17:38:24.136Z,98049.00
2019-04-04T17:40:30.034Z,98050.00
2019-04-04T17:42:35.594Z,98047.00
2019-04-04T17:44:40.921Z,98051.00
2019-04-04T17:46:46.120Z,98053.00
2019-04-04T17:48:51.054Z,98053.00
2019-04-04T17:50:56.427Z,98050.00
2019-04-04T17:53:01.653Z,98049.00
2019-04-04T17:55:07.855Z,98046.00
2019-04-04T17:57:13.100Z,98060.00
2019-04-04T17:59:18.643Z,98064.00
2019-04-04T18:01:24.175Z,98077.00
2019-04-04T18:03:29.111Z,98087.00
2019-04-04T18:05:34.054Z,98088.00
2019-04-04T18:07:39.482Z,98089.00
2019-04-04T18:09:45.662Z,98093.00
2019-04-04T18:11:51.112Z,98097.00
2019-04-04T18:13:56.581Z,98091.00
2019-04-04T18:16:01.836Z,98087.00
2019-04-04T18:18:07.050Z,98089.00
2019-04-04T18:20:13.000Z,98109.00
2019-04-04T18:22:20.725Z,98120.00
2019-04-04T18:24:25.156Z,98125.00
2019-04-04T18:26:30.014Z,98119.00
2019-04-04T18:28:35.494Z,98126.00
2019-04-04T18:30:40.849Z,98132.00
2019-04-04T18:32:45.763Z,98132.00
2019-04-04T18:34:50.892Z,98122.00
2019-04-04T18:36:56.580Z,98118.00
2019-04-04T18:39:02.117Z,98131.00
2019-04-04T18:41:07.455Z,98125.00
2019-04-04T18:43:12.625Z,98121.00
2019-04-04T18:45:18.060Z,98115.00
2019-04-04T18:47:23.542Z,98119.00
2019-04-04T18:49:28.704Z,98131.00
2019-04-04T18:51:37.519Z,98132.00
2019-04-04T18:53:41.159Z,98137.00
2019-04-04T18:55:46.109Z,98139.00
2019-04-04T18:57:51.376Z,98131.00
2019-04-04T18:59:56.253Z,98131.00
2019-04-04T19:02:01.769Z,98134.00
2019-04-04T19:04:06.869Z,98138.00
2019-04-04T19:06:12.191Z,98125.00
2019-04-04T19:08:17.279Z,98120.00
2019-04-04T19:10:22.761Z,98129.00
2019-04-04T19:12:28.111Z,98138.00
2019-04-04T19:14:33.266Z,98147.00
2019-04-04T19:16:38.283Z,98148.00
2019-04-04T19:18:43.318Z,98155.00
2019-04-04T19:20:48.505Z,98168.00
2019-04-04T19:22:53.885Z,98172.00
2019-04-04T19:24:59.092Z,98171.00
2019-04-04T19:27:04.115Z,98163.00
2019-04-04T19:29:09.097Z,98147.00
2019-04-04T19:31:14.451Z,98145.00
2019-04-04T19:33:19.386Z,98152.00
2019-04-04T19:35:24.519Z,98163.00
2019-04-04T19:37:29.662Z,98151.00
2019-04-04T19:39:35.183Z,98166.00
2019-04-04T19:41:40.479Z,98174.00
2019-04-04T19:43:45.340Z,98183.00
2019-04-04T19:45:50.297Z,98180.00
2019-04-04T19:47:55.941Z,98185.00
2019-04-04T19:50:00.896Z,98193.00
2019-04-04T19:52:06.101Z,98186.00
2019-04-04T19:54:11.187Z,98188.00
2019-04-04T19:56:16.346Z,98178.00
2019-04-04T19:58:21.230Z,98165.00
2019-04-04T20:00:26.966Z,98172.00
2019-04-04T20:02:32.548Z,98165.00
2019-04-04T20:04:37.421Z,98170.00
2019-04-04T20:06:42.287Z,98194.00
2019-04-04T20:08:51.075Z,98190.00
2019-04-04T20:10:54.812Z,98186.00
2019-04-04T20:13:00.241Z,98191.00
2019-04-04T20:15:05.993Z,98197.00
2019-04-04T20:17:11.179Z,98196.00
2019-04-04T20:19:16.029Z,98195.00
2019-04-04T20:21:21.185Z,98197.00
2019-04-04T20:23:26.290Z,98177.00
2019-04-04T20:25:31.478Z,98176.00
2019-04-04T20:27:36.490Z,98179.00
2019-04-04T20:29:41.679Z,98178.00
2019-04-04T20:31:46.553Z,98171.00
2019-04-04T20:34:01.425Z,98175.00
2019-04-04T20:35:58.591Z,98165.00
2019-04-04T20:38:03.638Z,98167.00
2019-04-04T20:40:08.837Z,98172.00
2019-04-04T20:42:15.021Z,98157.00
2019-04-04T20:44:20.310Z,98176.00
2019-04-04T20:46:25.174Z,98179.00
2019-04-04T20:48:30.365Z,98183.00
2019-04-04T20:50:35.981Z,98190.00
2019-04-04T20:52:40.825Z,98195.00
2019-04-04T20:54:46.087Z,98197.00
2019-04-04T20:56:50.950Z,98195.00
2019-04-04T20:58:56.664Z,98190.00
2019-04-04T21:01:01.608Z,98188.00
2019-04-04T21:03:06.873Z,98194.00
2019-04-04T21:05:11.948Z,98204.00
2019-04-04T21:07:16.823Z,98198.00
2019-04-04T21:09:22.192Z,98189.00
2019-04-04T21:11:28.307Z,98186.00
2019-04-04T21:13:33.179Z,98189.00
2019-04-04T21:15:38.141Z,98193.00
2019-04-04T21:17:43.050Z,98192.00
2019-04-04T21:19:48.005Z,98185.00
2019-04-04T21:21:53.802Z,98169.00
2019-04-04T21:23:58.662Z,98188.00
2019-04-04T21:26:04.434Z,98201.00
2019-04-04T21:28:09.663Z,98221.00
2019-04-04T21:30:14.663Z,98225.00
2019-04-04T21:32:19.927Z,98224.00
2019-04-04T21:34:25.061Z,98228.00
2019-04-04T21:36:30.264Z,98235.00
2019-04-04T21:38:35.440Z,98229.00
2019-04-04T21:40:40.386Z,98242.00
2019-04-04T21:42:45.591Z,98222.00
2019-04-04T21:44:50.868Z,98229.00
2019-04-04T21:46:56.186Z,98226.00
2019-04-04T21:49:01.114Z,98216.00
2019-04-04T21:51:06.363Z,98223.00
2019-04-04T21:53:11.483Z,98224.00
2019-04-04T21:55:16.446Z,98221.00
2019-04-04T21:57:21.793Z,98216.00
2019-04-04T21:59:27.258Z,98218.00
2019-04-04T22:01:32.509Z,98210.00
2019-04-04T22:03:37.392Z,98214.00
2019-04-04T22:05:42.385Z,98225.00
2019-04-04T22:07:47.249Z,98238.00
2019-04-04T22:09:52.627Z,98251.00
2019-04-04T22:11:57.759Z,98266.00
2019-04-04T22:14:03.015Z,98260.00
2019-04-04T22:16:08.105Z,98259.00
2019-04-04T22:18:13.314Z,98254.00
2019-04-04T22:20:18.242Z,98254.00
2019-04-04T22:22:23.442Z,98259.00
2019-04-04T22:24:28.817Z,98255.00
2019-04-04T22:26:34.265Z,98263.00
2019-04-04T22:28:39.530Z,98269.00
2019-04-04T22:30:45.411Z,98265.00
2019-04-04T22:32:50.774Z,98269.00
2019-04-04T22:34:55.888Z,98273.00
2019-04-04T22:37:01.074Z,98282.00
2019-04-04T22:39:08.562Z,98283.00
2019-04-04T22:41:13.656Z,98271.00
2019-04-04T22:43:20.600Z,98263.00
2019-04-04T22:45:26.385Z,98254.00
2019-04-04T22:47:31.339Z,98251.00
2019-04-04T22:49:36.592Z,98250.00
2019-04-04T22:51:42.038Z,98241.00
2019-04-04T22:53:47.593Z,98241.00
2019-04-04T22:55:52.555Z,98250.00
2019-04-04T22:57:57.411Z,98257.00
2019-04-04T23:00:02.582Z,98265.00
2019-04-04T23:02:07.589Z,98273.00
2019-04-04T23:04:12.517Z,98264.00
2019-04-04T23:06:17.459Z,98270.00
2019-04-04T23:08:22.721Z,98269.00
2019-04-04T23:10:27.663Z,98268.00
2019-04-04T23:12:32.884Z,98269.00
2019-04-04T23:14:47.903Z,98283.00
2019-04-04T23:16:45.134Z,98265.00
2019-04-04T23:18:50.462Z,98273.00
2019-04-04T23:20:55.323Z,98273.00
2019-04-04T23:23:01.337Z,98281.00
2019-04-04T23:25:07.405Z,98283.00
2019-04-04T23:27:12.604Z,98282.00
2019-04-04T23:29:17.742Z,98281.00
2019-04-04T23:31:22.741Z,98272.00
2019-04-04T23:33:27.966Z,98278.00
2019-04-04T23:35:32.956Z,98279.00
2019-04-04T23:37:38.005Z,98296.00
2019-04-04T23:39:43.220Z,98289.00
2019-04-04T23:41:48.459Z,98282.00
2019-04-04T23:43:53.343Z,98285.00
2019-04-04T23:45:58.746Z,98279.00
2019-04-04T23:48:03.745Z,98282.00
2019-04-04T23:50:09.631Z,98288.00
2019-04-04T23:52:14.970Z,98287.00
2019-04-04T23:54:20.830Z,98289.00
2019-04-04T23:56:25.774Z,98293.00
2019-04-04T23:58:30.776Z,98286.00
